Time;durP1;ratioP1;P1;durP2;ratioP2;P2;SDS_P1;SDS_P2;PMS_P1;PMS_P2;Temp;Humidity;BMP_temperature;BMP_pressure;BME280_temperature;BME280_humidity;BME280_pressure;Samples;Min_cycle;Max_cycle;Signal;HPM_P1;HPM_P2
2022/08/16 00:02:01;;;;;;;1999.90;999.90;;;20.80;99.90;;;;;;5053164;28;20368;-61
2022/08/16 00:04:27;;;;;;;1999.90;999.90;;;20.90;99.90;;;;;;5053188;28;20427;-61
2022/08/16 00:06:54;;;;;;;1999.90;999.90;;;20.90;99.90;;;;;;5052818;28;20049;-61
2022/08/16 00:09:20;;;;;;;1999.90;999.90;;;20.90;99.90;;;;;;5052258;28;20384;-61
2022/08/16 00:11:47;;;;;;;1999.90;999.90;;;20.80;99.90;;;;;;5052842;28;20453;-61
2022/08/16 00:14:17;;;;;;;1999.90;999.90;;;20.80;99.90;;;;;;5053919;28;20567;-61
2022/08/16 00:16:43;;;;;;;1999.90;999.90;;;20.70;99.90;;;;;;5053506;28;20127;-61
2022/08/16 00:19:10;;;;;;;1999.90;999.90;;;20.80;99.90;;;;;;5035806;28;20049;-61
2022/08/16 00:21:35;;;;;;;1999.90;999.90;;;20.80;99.90;;;;;;5052664;28;20053;-61
2022/08/16 00:24:01;;;;;;;1999.90;999.90;;;20.80;99.90;;;;;;5053400;28;20055;-61
2022/08/16 00:26:27;;;;;;;1999.90;999.90;;;20.90;99.90;;;;;;5052784;28;20051;-61
2022/08/16 00:28:53;;;;;;;1999.90;999.90;;;20.90;99.90;;;;;;5053444;28;20051;-61
2022/08/16 00:31:19;;;;;;;1999.90;999.90;;;20.90;99.90;;;;;;5035502;28;20111;-61
2022/08/16 00:33:46;;;;;;;1999.90;999.90;;;20.90;99.90;;;;;;5052546;28;20041;-61
2022/08/16 00:36:11;;;;;;;1999.90;999.90;;;21.00;99.90;;;;;;5052718;28;20057;-61
2022/08/16 00:38:37;;;;;;;1999.90;999.90;;;20.90;99.90;;;;;;5054001;28;20051;-61
2022/08/16 00:41:03;;;;;;;1999.90;999.90;;;20.90;99.90;;;;;;5052711;28;20187;-62
2022/08/16 00:43:34;;;;;;;1999.90;999.90;;;20.90;99.90;;;;;;5051653;28;20044;-61
2022/08/16 00:46:26;;;;;;;1999.90;999.90;;;20.90;99.90;;;;;;5053470;28;20106;-61
2022/08/16 00:48:52;;;;;;;1999.90;999.90;;;20.80;99.90;;;;;;5035616;28;20045;-61
2022/08/16 00:51:20;;;;;;;1999.90;999.90;;;20.90;99.90;;;;;;5051645;28;20056;-61
2022/08/16 00:53:48;;;;;;;1999.90;999.90;;;20.90;99.90;;;;;;5052316;28;20052;-61
2022/08/16 00:56:19;;;;;;;1999.90;999.90;;;20.90;99.90;;;;;;5068300;28;20405;-61
2022/08/16 00:58:47;;;;;;;1999.90;999.90;;;20.90;99.90;;;;;;5051498;28;20037;-61
2022/08/16 01:01:14;;;;;;;1999.90;999.90;;;20.90;99.90;;;;;;5053254;28;20483;-61
2022/08/16 01:03:42;;;;;;;1999.90;999.90;;;20.90;99.90;;;;;;5051483;28;20124;-61
2022/08/16 01:06:10;;;;;;;1999.90;999.90;;;20.90;99.90;;;;;;5052403;28;20056;-61
2022/08/16 01:08:37;;;;;;;1999.90;999.90;;;20.90;99.90;;;;;;5052205;28;20045;-61
2022/08/16 01:11:04;;;;;;;1999.90;999.90;;;21.00;99.90;;;;;;5052026;28;20041;-61
2022/08/16 01:13:34;;;;;;;1999.90;999.90;;;20.90;99.90;;;;;;5052004;28;20463;-61
2022/08/16 01:16:04;;;;;;;1999.90;999.90;;;20.80;99.90;;;;;;5053319;28;20099;-61
2022/08/16 01:18:39;;;;;;;1999.90;999.90;;;20.80;99.90;;;;;;5051326;28;20084;-61
2022/08/16 01:21:16;;;;;;;1999.90;999.90;;;20.80;99.90;;;;;;5052475;28;20423;-61
2022/08/16 01:23:52;;;;;;;1999.90;999.90;;;20.90;99.90;;;;;;5053081;28;20045;-61
2022/08/16 01:26:18;;;;;;;1999.90;999.90;;;20.80;99.90;;;;;;5051342;28;20045;-61
2022/08/16 01:28:46;;;;;;;1999.90;999.90;;;20.70;99.90;;;;;;5052496;28;20499;-61
2022/08/16 01:31:13;;;;;;;1999.90;999.90;;;20.80;99.90;;;;;;5051633;28;20514;-61
2022/08/16 01:33:39;;;;;;;1999.90;999.90;;;20.70;99.90;;;;;;5060724;28;20453;-61
2022/08/16 01:36:07;;;;;;;1999.90;999.90;;;20.60;99.90;;;;;;5037772;28;20048;-61
2022/08/16 01:38:38;;;;;;;1999.90;999.90;;;20.50;99.90;;;;;;5054700;28;20051;-61
2022/08/16 01:41:17;;;;;;;1999.90;999.90;;;20.50;99.90;;;;;;5054214;28;20048;-61
2022/08/16 01:43:45;;;;;;;1999.90;999.90;;;20.50;99.90;;;;;;5054781;28;20051;-61
2022/08/16 01:46:23;;;;;;;1999.90;999.90;;;20.50;99.90;;;;;;5054725;28;20111;-61
2022/08/16 01:48:58;;;;;;;1999.90;999.90;;;20.60;99.90;;;;;;5054239;28;20048;-61
2022/08/16 01:51:27;;;;;;;1999.90;999.90;;;20.60;99.90;;;;;;5054812;28;20425;-61
2022/08/16 01:53:54;;;;;;;1999.90;999.90;;;20.60;99.90;;;;;;5053847;28;20051;-61
2022/08/16 01:56:27;;;;;;;1999.90;999.90;;;20.70;99.90;;;;;;5039758;28;20079;-61
2022/08/16 01:58:56;;;;;;;1999.90;999.90;;;20.70;99.90;;;;;;5038042;28;20128;-61
2022/08/16 02:01:23;;;;;;;1999.90;999.90;;;20.70;99.90;;;;;;5037122;28;20475;-61
2022/08/16 02:03:50;;;;;;;1999.90;999.90;;;20.60;99.90;;;;;;5043226;28;20040;-61
2022/08/16 02:06:16;;;;;;;1999.90;999.90;;;20.60;99.90;;;;;;5069770;28;20044;-61
2022/08/16 02:08:42;;;;;;;1999.90;999.90;;;20.70;99.90;;;;;;5057950;28;20556;-61
2022/08/16 02:11:08;;;;;;;1999.90;999.90;;;20.60;99.90;;;;;;5070640;28;20053;-61
2022/08/16 02:13:39;;;;;;;1999.90;999.90;;;20.60;99.90;;;;;;5057235;28;20040;-61
2022/08/16 02:16:06;;;;;;;1999.90;999.90;;;20.70;99.90;;;;;;5057790;28;20123;-61
2022/08/16 02:18:33;;;;;;;1999.90;999.90;;;20.50;99.90;;;;;;5058222;28;20502;-61
2022/08/16 02:21:00;;;;;;;1999.90;999.90;;;20.50;99.90;;;;;;5059348;28;20084;-61
2022/08/16 02:23:26;;;;;;;1999.90;999.90;;;20.50;99.90;;;;;;5046926;28;20040;-61
2022/08/16 02:25:52;;;;;;;1999.90;999.90;;;20.50;99.90;;;;;;5076659;28;20040;-61
2022/08/16 02:28:19;;;;;;;1999.90;999.90;;;20.40;99.90;;;;;;5076273;28;20127;-61
2022/08/16 02:30:45;;;;;;;1999.90;999.90;;;20.50;99.90;;;;;;5057911;28;20040;-61
2022/08/16 02:33:12;;;;;;;1999.90;999.90;;;20.40;99.90;;;;;;5057628;28;20045;-61
2022/08/16 02:35:38;;;;;;;1999.90;999.90;;;20.40;99.90;;;;;;5057339;28;20407;-61
2022/08/16 02:38:05;;;;;;;1999.90;999.90;;;20.30;99.90;;;;;;5058487;28;20041;-61
2022/08/16 02:40:31;;;;;;;1999.90;999.90;;;20.30;99.90;;;;;;5057742;28;20059;-61
2022/08/16 02:42:57;;;;;;;1999.90;999.90;;;20.30;99.90;;;;;;5057218;28;20383;-61
2022/08/16 02:45:26;;;;;;;1999.90;999.90;;;20.20;99.90;;;;;;5065912;28;20045;-61
2022/08/16 02:47:52;;;;;;;1999.90;999.90;;;20.20;99.90;;;;;;5055915;28;20048;-61
2022/08/16 02:50:18;;;;;;;1999.90;999.90;;;20.20;99.90;;;;;;5048768;28;20045;-61
2022/08/16 02:52:44;;;;;;;1999.90;999.90;;;20.10;99.90;;;;;;5076009;28;20057;-61
2022/08/16 02:55:11;;;;;;;1999.90;999.90;;;20.10;99.90;;;;;;5057789;28;20040;-61
2022/08/16 02:57:38;;;;;;;1999.90;999.90;;;20.10;99.90;;;;;;5037896;28;20445;-61
2022/08/16 03:00:08;;;;;;;1999.90;999.90;;;20.00;99.90;;;;;;5040270;28;20478;-61
2022/08/16 03:02:39;;;;;;;1999.90;999.90;;;20.00;99.90;;;;;;5053940;28;20938;-61
2022/08/16 03:05:08;;;;;;;1999.90;999.90;;;20.00;99.90;;;;;;5054681;28;20049;-61
2022/08/16 03:07:35;;;;;;;1999.90;999.90;;;20.00;99.90;;;;;;5045740;28;20098;-61
2022/08/16 03:10:01;;;;;;;1999.90;999.90;;;19.90;99.90;;;;;;5075499;28;20169;-61
2022/08/16 03:12:29;;;;;;;1999.90;999.90;;;19.90;99.90;;;;;;5050162;28;20038;-61
2022/08/16 03:14:55;;;;;;;1999.90;999.90;;;19.90;99.90;;;;;;5016476;28;20495;-61
2022/08/16 03:17:21;;;;;;;1999.90;999.90;;;19.90;99.90;;;;;;5053383;28;20045;-61
2022/08/16 03:19:52;;;;;;;1999.90;999.90;;;19.90;99.90;;;;;;5049202;28;20116;-61
2022/08/16 03:22:20;;;;;;;1999.90;999.90;;;20.00;99.90;;;;;;5055161;28;20109;-61
2022/08/16 03:24:46;;;;;;;1999.90;999.90;;;20.10;99.90;;;;;;5024336;28;20033;-61
2022/08/16 03:27:12;;;;;;;1999.90;999.90;;;20.10;99.90;;;;;;5056883;28;20044;-61
2022/08/16 03:29:37;;;;;;;1999.90;999.90;;;20.20;99.90;;;;;;5057012;28;20049;-61
2022/08/16 03:32:04;;;;;;;1999.90;999.90;;;20.00;99.90;;;;;;5056707;28;20052;-61
2022/08/16 03:34:32;;;;;;;1999.90;999.90;;;20.00;99.90;;;;;;5062317;28;20048;-61
2022/08/16 03:36:59;;;;;;;1999.90;999.90;;;20.00;99.90;;;;;;5037432;28;20049;-60
2022/08/16 03:39:25;;;;;;;1999.90;999.90;;;20.10;99.90;;;;;;5020140;28;20430;-61
2022/08/16 03:41:52;;;;;;;1999.90;999.90;;;20.00;99.90;;;;;;5054625;28;20395;-61
2022/08/16 03:44:21;;;;;;;1999.90;999.90;;;20.10;99.90;;;;;;5054309;28;20037;-61
2022/08/16 03:46:47;;;;;;;1999.90;999.90;;;20.10;99.90;;;;;;5019690;28;20049;-61
2022/08/16 03:49:14;;;;;;;1999.90;999.90;;;20.10;99.90;;;;;;5036886;28;20044;-61
2022/08/16 03:51:44;;;;;;;1999.90;999.90;;;20.10;99.90;;;;;;5033557;28;20052;-61
2022/08/16 03:54:17;;;;;;;1999.90;999.90;;;20.10;99.90;;;;;;5016315;28;20072;-61
2022/08/16 03:56:44;;;;;;;1999.90;999.90;;;20.00;99.90;;;;;;5028201;28;20055;-61
2022/08/16 03:59:09;;;;;;;1999.90;999.90;;;20.00;99.90;;;;;;5054774;28;20129;-61
2022/08/16 04:01:45;;;;;;;1999.90;999.90;;;19.90;99.90;;;;;;5053205;28;20053;-61
2022/08/16 04:04:11;;;;;;;1999.90;999.90;;;19.90;99.90;;;;;;5023168;28;20041;-61
2022/08/16 04:06:37;;;;;;;1999.90;999.90;;;19.90;99.90;;;;;;5036931;28;20088;-61
2022/08/16 04:09:03;;;;;;;1999.90;999.90;;;19.90;99.90;;;;;;5040392;28;20028;-61
2022/08/16 04:11:30;;;;;;;1999.90;999.90;;;19.90;99.90;;;;;;5065452;28;20049;-61
2022/08/16 04:13:57;;;;;;;1999.90;999.90;;;19.90;99.90;;;;;;5036813;28;20052;-61
2022/08/16 04:16:23;;;;;;;1999.90;999.90;;;19.80;99.90;;;;;;5019193;28;20045;-61
2022/08/16 04:18:49;;;;;;;1999.90;999.90;;;19.80;99.90;;;;;;5048246;28;20040;-60
2022/08/16 04:21:15;;;;;;;1999.90;999.90;;;19.90;99.90;;;;;;5036402;28;20086;-61
2022/08/16 04:23:41;;;;;;;1999.90;999.90;;;19.80;99.90;;;;;;5019842;28;20126;-61
2022/08/16 04:26:08;;;;;;;1999.90;999.90;;;19.80;99.90;;;;;;5035489;28;20052;-61
2022/08/16 04:28:38;;;;;;;1999.90;999.90;;;19.90;99.90;;;;;;5032078;28;20045;-61
2022/08/16 04:31:05;;;;;;;1999.90;999.90;;;19.80;99.90;;;;;;5032998;28;20060;-61
2022/08/16 04:33:31;;;;;;;1999.90;999.90;;;19.80;99.90;;;;;;5019914;28;20136;-60
2022/08/16 04:35:59;;;;;;;1999.90;999.90;;;19.70;99.90;;;;;;5039799;28;20448;-60
2022/08/16 04:38:27;;;;;;;1999.90;999.90;;;19.70;99.90;;;;;;5069167;28;20098;-61
2022/08/16 04:40:54;;;;;;;1999.90;999.90;;;19.70;99.90;;;;;;5068999;28;20064;-60
2022/08/16 04:43:20;;;;;;;1999.90;999.90;;;19.70;99.90;;;;;;5063335;28;20038;-61
2022/08/16 04:45:46;;;;;;;1999.90;999.90;;;19.70;99.90;;;;;;5048383;28;20045;-61
2022/08/16 04:48:16;;;;;;;1999.90;999.90;;;19.60;99.90;;;;;;5052317;28;20036;-60
2022/08/16 04:50:50;;;;;;;1999.90;999.90;;;19.60;99.90;;;;;;5051531;28;20068;-61
2022/08/16 04:53:18;;;;;;;1999.90;999.90;;;19.60;99.90;;;;;;5035246;28;20470;-60
2022/08/16 04:55:46;;;;;;;1999.90;999.90;;;;;;;;;;5051809;28;20045;-60
2022/08/16 04:58:12;;;;;;;1999.90;999.90;;;19.80;99.90;;;;;;5052915;28;20049;-61
2022/08/16 05:00:38;;;;;;;1999.90;999.90;;;19.60;99.90;;;;;;5052474;28;20049;-61
2022/08/16 05:03:09;;;;;;;1999.90;999.90;;;19.80;99.90;;;;;;5051183;28;20041;-61
2022/08/16 05:05:44;;;;;;;1999.90;999.90;;;19.80;99.90;;;;;;5035399;28;20053;-61
2022/08/16 05:08:12;;;;;;;1999.90;999.90;;;19.80;99.90;;;;;;5053338;28;20167;-60
2022/08/16 05:10:42;;;;;;;1999.90;999.90;;;19.70;99.90;;;;;;5050807;28;20048;-61
2022/08/16 05:13:09;;;;;;;1999.90;999.90;;;19.70;99.90;;;;;;5052334;28;20041;-61
2022/08/16 05:15:35;;;;;;;1999.90;999.90;;;19.70;99.90;;;;;;5051989;28;20463;-60
2022/08/16 05:18:02;;;;;;;1999.90;999.90;;;19.70;99.90;;;;;;5052172;28;20049;-60
2022/08/16 05:20:32;;;;;;;1999.90;999.90;;;19.70;99.90;;;;;;5048159;28;20037;-61
2022/08/16 05:22:59;;;;;;;1999.90;999.90;;;19.80;99.90;;;;;;5031661;28;20061;-61
2022/08/16 05:25:25;;;;;;;1999.90;999.90;;;19.80;99.90;;;;;;5030924;28;20037;-61
2022/08/16 05:27:54;;;;;;;1999.90;999.90;;;19.80;99.90;;;;;;5032104;28;20045;-60
2022/08/16 05:30:21;;;;;;;1999.90;999.90;;;19.90;99.90;;;;;;5050416;28;20094;-60
2022/08/16 05:32:47;;;;;;;1999.90;999.90;;;20.00;99.90;;;;;;5052122;28;20466;-61
2022/08/16 05:35:15;;;;;;;1999.90;999.90;;;20.00;99.90;;;;;;5054915;28;20475;-61
2022/08/16 05:37:52;;;;;;;1999.90;999.90;;;20.00;99.90;;;;;;5037028;28;20041;-60
2022/08/16 05:40:18;;;;;;;1999.90;999.90;;;20.00;99.90;;;;;;5054171;28;20052;-61
2022/08/16 05:42:45;;;;;;;1999.90;999.90;;;20.00;99.90;;;;;;5042399;28;20124;-61
2022/08/16 05:45:11;;;;;;;1999.90;999.90;;;20.00;99.90;;;;;;5035090;28;20049;-61
2022/08/16 05:47:37;;;;;;;1999.90;999.90;;;20.10;99.90;;;;;;5048774;28;20123;-61
2022/08/16 05:50:05;;;;;;;1999.90;999.90;;;20.00;99.90;;;;;;5054670;28;20048;-61
2022/08/16 05:52:31;;;;;;;1999.90;999.90;;;20.00;99.90;;;;;;5054249;28;20076;-61
2022/08/16 05:54:59;;;;;;;1999.90;999.90;;;20.10;99.90;;;;;;5067530;28;20059;-61
2022/08/16 05:57:25;;;;;;;1999.90;999.90;;;20.20;99.90;;;;;;5034473;28;20123;-61
2022/08/16 05:59:52;;;;;;;1999.90;999.90;;;20.40;99.90;;;;;;5034200;28;20114;-61
2022/08/16 06:02:20;;;;;;;1999.90;999.90;;;20.50;99.90;;;;;;5034322;28;20044;-61
2022/08/16 06:04:47;;;;;;;1999.90;999.90;;;20.60;99.90;;;;;;5045306;28;20048;-61
2022/08/16 06:07:15;;;;;;;1999.90;999.90;;;20.70;99.90;;;;;;5053868;28;20463;-61
2022/08/16 06:09:46;;;;;;;1999.90;999.90;;;20.70;99.90;;;;;;5054447;28;20547;-61
2022/08/16 06:12:15;;;;;;;1999.90;999.90;;;20.90;99.90;;;;;;5057832;28;20484;-61
2022/08/16 06:14:41;;;;;;;1999.90;999.90;;;21.00;99.90;;;;;;5036624;28;20048;-61
2022/08/16 06:17:09;;;;;;;1999.90;999.90;;;21.10;99.90;;;;;;5054284;28;20075;-61
2022/08/16 06:19:35;;;;;;;1999.90;999.90;;;21.20;99.90;;;;;;5049340;28;20088;-60
2022/08/16 06:22:09;;;;;;;1999.90;999.90;;;21.20;99.90;;;;;;5041286;28;20044;-60
2022/08/16 06:24:36;;;;;;;1999.90;999.90;;;21.40;99.90;;;;;;5054329;28;20040;-61
2022/08/16 06:27:03;;;;;;;1999.90;999.90;;;21.50;99.90;;;;;;5054597;28;20037;-60
2022/08/16 06:29:31;;;;;;;1999.90;999.90;;;21.50;99.90;;;;;;5070573;28;20083;-61
2022/08/16 06:31:59;;;;;;;1999.90;999.90;;;21.60;99.90;;;;;;5071739;28;20076;-60
2022/08/16 06:34:26;;;;;;;1999.90;999.90;;;21.70;99.90;;;;;;5070857;28;20052;-61
2022/08/16 06:36:52;;;;;;;1999.90;999.90;;;21.80;99.90;;;;;;5070445;28;20141;-61
2022/08/16 06:39:21;;;;;;;1999.90;999.90;;;21.90;99.90;;;;;;5071645;28;20037;-61
2022/08/16 06:41:56;;;;;;;1999.90;999.90;;;22.00;99.90;;;;;;5036320;28;20506;-61
2022/08/16 06:44:41;;;;;;;1999.90;999.90;;;22.10;99.90;;;;;;5052291;28;20052;-60
2022/08/16 06:47:18;;;;;;;1999.90;999.90;;;22.50;99.90;;;;;;5017411;28;20483;-61
2022/08/16 06:49:44;;;;;;;1999.90;999.90;;;22.50;99.90;;;;;;5051601;28;20580;-61
2022/08/16 06:52:09;;;;;;;1999.90;999.90;;;22.40;99.90;;;;;;5076087;28;20108;-61
2022/08/16 06:54:37;;;;;;;1999.90;999.90;;;22.60;99.90;;;;;;5060876;28;20120;-60
2022/08/16 06:57:04;;;;;;;1999.90;999.90;;;22.70;99.90;;;;;;5058353;28;20050;-61
2022/08/16 06:59:32;;;;;;;1999.90;999.90;;;22.90;99.90;;;;;;5058106;28;20048;-61
2022/08/16 07:01:58;;;;;;;1999.90;999.90;;;23.00;99.90;;;;;;5057218;28;20055;-61
2022/08/16 07:04:26;;;;;;;1999.90;999.90;;;22.90;99.90;;;;;;5038674;28;20502;-61
2022/08/16 07:06:53;;;;;;;1999.90;999.90;;;23.30;99.90;;;;;;5032796;28;20070;-61
2022/08/16 07:09:20;;;;;;;1999.90;999.90;;;23.30;99.90;;;;;;5057360;28;20517;-61
2022/08/16 07:11:46;;;;;;;1999.90;999.90;;;23.00;99.90;;;;;;5046054;28;20054;-61
2022/08/16 07:14:13;;;;;;;1999.90;999.90;;;23.20;99.90;;;;;;5054281;28;20056;-61
2022/08/16 07:16:45;;;;;;;1999.90;999.90;;;23.20;99.90;;;;;;5033741;28;20049;-60
2022/08/16 07:19:11;;;;;;;1999.90;999.90;;;23.70;99.90;;;;;;5035316;28;20498;-61
2022/08/16 07:21:40;;;;;;;1999.90;999.90;;;23.50;99.90;;;;;;5037653;28;20056;-61
2022/08/16 07:24:08;;;;;;;1999.90;999.90;;;23.80;99.90;;;;;;5044468;28;20478;-61
2022/08/16 07:26:37;;;;;;;1999.90;999.90;;;23.70;99.90;;;;;;5034611;28;20072;-61
2022/08/16 07:29:03;;;;;;;1999.90;999.90;;;23.90;99.90;;;;;;5021151;28;20072;-61
2022/08/16 07:31:29;;;;;;;1999.90;999.90;;;24.20;99.90;;;;;;5043707;28;20053;-61
2022/08/16 07:33:55;;;;;;;1295.10;772.22;;;24.20;99.90;;;;;;5016485;28;20408;-61
2022/08/16 07:36:28;;;;;;;853.17;789.10;;;24.30;99.90;;;;;;5017250;28;20119;-61
2022/08/16 07:38:54;;;;;;;846.63;782.22;;;24.40;99.90;;;;;;5042880;28;20037;-61
2022/08/16 07:41:21;;;;;;;1999.90;999.90;;;24.40;99.90;;;;;;5053209;28;20044;-61
2022/08/16 07:43:53;;;;;;;839.58;780.33;;;24.00;99.90;;;;;;5033857;28;20042;-61
2022/08/16 07:46:20;;;;;;;1659.93;894.72;;;24.10;99.90;;;;;;5032948;28;20545;-61
2022/08/16 07:48:45;;;;;;;1999.90;999.90;;;24.30;99.90;;;;;;5033822;28;20049;-61
2022/08/16 07:51:11;;;;;;;1999.90;999.90;;;24.50;99.90;;;;;;5047346;28;20055;-61
2022/08/16 07:53:40;;;;;;;803.72;747.72;;;24.50;99.90;;;;;;5052477;28;20051;-61
2022/08/16 07:56:06;;;;;;;1999.90;999.90;;;24.60;99.90;;;;;;5036484;28;20052;-61
2022/08/16 07:58:36;;;;;;;797.97;742.80;;;24.50;99.90;;;;;;5053303;28;20048;-61
2022/08/16 08:01:06;;;;;;;1999.90;999.90;;;24.80;99.90;;;;;;5031704;28;20053;-61
2022/08/16 08:03:32;;;;;;;774.08;721.58;;;24.90;99.90;;;;;;5045686;28;20037;-61
2022/08/16 08:06:00;;;;;;;914.47;842.47;;;24.90;99.90;;;;;;5042095;28;20080;-61
2022/08/16 08:08:26;;;;;;;1404.13;874.63;;;24.70;99.90;;;;;;5040999;28;20491;-61
2022/08/16 08:10:52;;;;;;;821.75;764.15;;;24.90;99.90;;;;;;5052637;28;20080;-61
2022/08/16 08:13:18;;;;;;;1588.90;831.40;;;24.80;99.90;;;;;;5042635;28;20049;-61
2022/08/16 08:15:45;;;;;;;812.60;750.15;;;25.20;99.90;;;;;;5041208;28;20045;-61
2022/08/16 08:18:12;;;;;;;827.08;770.25;;;24.90;99.90;;;;;;5044953;28;20029;-61
2022/08/16 08:20:43;;;;;;;863.15;800.50;;;24.60;99.90;;;;;;5043588;28;20033;-61
2022/08/16 08:23:11;;;;;;;743.78;692.95;;;24.90;99.90;;;;;;5039339;28;20034;-61
2022/08/16 08:25:41;;;;;;;802.58;746.50;;;24.90;99.90;;;;;;5044283;28;20045;-61
2022/08/16 08:28:07;;;;;;;828.40;767.35;;;24.50;99.90;;;;;;5041906;28;20041;-61
2022/08/16 08:30:34;;;;;;;840.50;779.50;;;24.40;99.90;;;;;;5053566;28;20045;-61
2022/08/16 08:33:00;;;;;;;818.10;762.03;;;24.70;99.90;;;;;;5053474;28;20065;-61
2022/08/16 08:35:31;;;;;;;863.58;802.17;;;24.50;99.90;;;;;;5051747;28;20434;-61
2022/08/16 08:37:58;;;;;;;816.85;758.58;;;24.60;99.90;;;;;;5052303;28;20364;-61
2022/08/16 08:40:28;;;;;;;925.85;841.38;;;24.60;99.90;;;;;;5036248;28;20447;-61
2022/08/16 08:42:57;;;;;;;814.28;756.92;;;24.70;99.90;;;;;;5051565;28;20479;-61
2022/08/16 08:45:23;;;;;;;839.42;777.40;;;24.50;99.90;;;;;;5053690;28;20063;-61
2022/08/16 08:47:49;;;;;;;913.85;842.47;;;24.50;99.90;;;;;;5052656;28;20040;-61
2022/08/16 08:50:16;;;;;;;818.15;750.42;;;24.70;99.90;;;;;;5051867;28;20537;-61
2022/08/16 08:52:43;;;;;;;820.38;756.75;;;24.60;99.90;;;;;;5049097;28;20037;-61
2022/08/16 08:55:13;;;;;;;774.65;720.95;;;24.40;99.90;;;;;;5043584;28;20041;-61
2022/08/16 08:57:44;;;;;;;862.20;797.45;;;24.50;99.90;;;;;;5035641;28;20315;-61
2022/08/16 09:00:19;;;;;;;884.72;814.15;;;24.80;99.90;;;;;;5034942;28;20055;-61
2022/08/16 09:02:46;;;;;;;835.67;776.08;;;24.90;99.90;;;;;;5050145;28;20044;-61
2022/08/16 09:05:14;;;;;;;907.78;839.60;;;25.10;99.90;;;;;;5052218;28;20403;-61
2022/08/16 09:07:40;;;;;;;853.63;789.92;;;25.20;99.90;;;;;;5053145;28;20055;-61
2022/08/16 09:10:08;;;;;;;669.25;626.33;;;25.10;99.90;;;;;;5050838;28;20077;-61
2022/08/16 09:12:37;;;;;;;1700.55;936.00;;;25.20;99.90;;;;;;5046985;28;20037;-61
2022/08/16 09:15:09;;;;;;;746.92;695.33;;;25.40;99.90;;;;;;5032919;28;20042;-61
2022/08/16 09:17:34;;;;;;;665.75;622.42;;;25.50;99.90;;;;;;5024260;28;20067;-61
2022/08/16 09:20:00;;;;;;;521.28;490.30;;;25.40;99.90;;;;;;5052453;28;20124;-61
2022/08/16 09:22:27;;;;;;;683.75;640.15;;;25.60;99.90;;;;;;5050934;28;20056;-61
2022/08/16 09:24:53;;;;;;;640.22;598.83;;;25.60;99.90;;;;;;5052374;28;20064;-61
2022/08/16 09:27:22;;;;;;;505.58;477.25;;;25.60;99.90;;;;;;5048708;28;20631;-61
2022/08/16 09:29:48;;;;;;;537.15;506.60;;;25.70;99.90;;;;;;5040621;28;20053;-61
2022/08/16 09:32:17;;;;;;;535.33;504.70;;;26.00;99.90;;;;;;5041014;28;20033;-61
2022/08/16 09:34:43;;;;;;;579.90;543.75;;;26.20;99.90;;;;;;5052151;28;20059;-61
2022/08/16 09:37:09;;;;;;;505.13;475.95;;;26.60;99.90;;;;;;5051946;28;20119;-61
2022/08/16 09:39:35;;;;;;;570.55;535.67;;;;;;;;;;5052082;28;20372;-61
2022/08/16 09:42:01;;;;;;;566.78;532.17;;;26.80;99.90;;;;;;5052599;28;20052;-61
2022/08/16 09:44:29;;;;;;;612.53;574.45;;;26.60;99.90;;;;;;5052475;28;20384;-61
2022/08/16 09:46:56;;;;;;;544.78;512.70;;;26.50;99.90;;;;;;5051873;28;20060;-61
2022/08/16 09:49:22;;;;;;;484.52;457.02;;;26.60;99.90;;;;;;5052503;28;20412;-61
2022/08/16 09:51:53;;;;;;;608.95;570.17;;;26.40;99.90;;;;;;5051785;28;20130;-61
2022/08/16 09:54:21;;;;;;;379.10;359.20;;;26.90;99.90;;;;;;5052299;28;20156;-61
2022/08/16 09:56:48;;;;;;;324.75;305.25;;;27.00;99.90;;;;;;5052703;28;20053;-61
2022/08/16 09:59:14;;;;;;;1999.90;999.90;;;27.10;96.80;;;;;;5051420;28;20056;-61
2022/08/16 10:01:43;;;;;;;1999.90;999.90;;;27.00;97.00;;;;;;5052614;28;20415;-61
2022/08/16 10:04:09;;;;;;;1999.90;999.90;;;26.90;95.70;;;;;;5052337;28;20049;-61
2022/08/16 10:06:36;;;;;;;1999.90;999.90;;;26.90;97.00;;;;;;5050556;28;20544;-61
2022/08/16 10:09:05;;;;;;;1999.90;999.90;;;27.00;96.50;;;;;;5052315;28;20044;-61
2022/08/16 10:14:16;;;;;;;1999.90;999.90;;;27.20;95.60;;;;;;5050858;28;20049;-61
2022/08/16 10:16:44;;;;;;;1999.90;999.90;;;27.40;97.40;;;;;;5052193;28;20045;-61
2022/08/16 10:19:11;;;;;;;1999.90;999.90;;;27.70;96.40;;;;;;5052224;28;20045;-61
2022/08/16 10:21:38;;;;;;;1999.90;999.90;;;28.10;96.00;;;;;;5050255;28;20047;-61
2022/08/16 10:24:06;;;;;;;1999.90;999.90;;;28.00;93.40;;;;;;5052999;28;20041;-61
2022/08/16 10:26:32;;;;;;;1999.90;999.90;;;28.10;93.30;;;;;;5055601;28;20475;-61
2022/08/16 10:28:59;;;;;;;1999.90;999.90;;;28.30;92.80;;;;;;5054461;28;20060;-61
2022/08/16 10:31:25;;;;;;;1999.90;999.90;;;28.40;91.70;;;;;;5053221;28;20048;-61
2022/08/16 10:33:52;;;;;;;1999.90;999.90;;;28.60;91.90;;;;;;5055292;28;20052;-62
2022/08/16 10:36:18;;;;;;;1999.90;999.90;;;;;;;;;;5054398;28;20056;-62
2022/08/16 10:38:45;;;;;;;1999.90;999.90;;;28.40;99.90;;;;;;5055469;28;20045;-62
2022/08/16 10:41:11;;;;;;;1999.90;999.90;;;29.30;99.90;;;;;;5034152;28;20116;-62
2022/08/16 10:43:39;;;;;;;1999.90;999.90;;;29.60;99.90;;;;;;5035792;28;20488;-61
2022/08/16 10:46:10;;;;;;;1999.90;999.90;;;30.10;87.20;;;;;;5049144;28;20045;-61
2022/08/16 10:48:36;;;;;;;1999.90;999.90;;;;;;;;;;5054011;28;20029;-61
2022/08/16 10:51:02;;;;;;;1999.90;999.90;;;32.50;84.40;;;;;;5041589;28;20058;-61
2022/08/16 10:53:31;;;;;;;1999.90;999.90;;;30.60;81.70;;;;;;5055736;28;20399;-61
2022/08/16 10:55:58;;;;;;;1999.90;999.90;;;30.80;80.00;;;;;;5053756;28;20048;-61
2022/08/16 10:58:25;;;;;;;1999.90;999.90;;;30.60;78.60;;;;;;5054622;28;20072;-61
2022/08/16 11:00:52;;;;;;;1999.90;999.90;;;31.00;81.70;;;;;;5055596;28;20088;-61
2022/08/16 11:03:19;;;;;;;1999.90;999.90;;;31.20;80.00;;;;;;5054849;28;20439;-61
2022/08/16 11:05:45;;;;;;;1999.90;999.90;;;31.80;79.00;;;;;;5054872;28;20056;-61
2022/08/16 11:08:11;;;;;;;1999.90;999.90;;;31.60;77.50;;;;;;5055829;28;20037;-61
2022/08/16 11:10:42;;;;;;;1999.90;999.90;;;31.30;75.70;;;;;;5054461;28;20107;-62
2022/08/16 11:13:11;;;;;;;1999.90;999.90;;;31.10;74.60;;;;;;5053977;28;20041;-61
2022/08/16 11:15:38;;;;;;;1999.90;999.90;;;30.90;73.80;;;;;;5055347;28;20056;-61
2022/08/16 11:18:05;;;;;;;1999.90;999.90;;;31.10;76.40;;;;;;5053361;28;20081;-62
2022/08/16 11:20:30;;;;;;;1999.90;999.90;;;30.90;73.20;;;;;;5053683;28;20099;-61
2022/08/16 11:22:58;;;;;;;1999.90;999.90;;;30.90;72.60;;;;;;5054797;28;20045;-61
2022/08/16 11:25:26;;;;;;;1999.90;999.90;;;31.00;73.20;;;;;;5054797;28;20452;-61
2022/08/16 11:27:53;;;;;;;189.50;179.00;;;30.90;73.60;;;;;;5055134;28;20049;-61
2022/08/16 11:30:19;;;;;;;1053.45;550.40;;;30.90;70.80;;;;;;5050563;28;20116;-61
2022/08/16 11:32:45;;;;;;;1182.18;668.78;;;30.50;72.50;;;;;;5045697;28;20077;-61
2022/08/16 11:35:16;;;;;;;1999.90;999.90;;;30.50;71.60;;;;;;5033696;28;20095;-61
2022/08/16 11:37:47;;;;;;;1999.90;999.90;;;30.70;74.50;;;;;;5033669;28;20045;-61
2022/08/16 11:40:15;;;;;;;1999.90;999.90;;;30.60;71.40;;;;;;5052023;28;20083;-61
2022/08/16 11:42:41;;;;;;;1999.90;999.90;;;30.90;71.00;;;;;;5054256;28;20692;-61
2022/08/16 11:45:07;;;;;;;1999.90;999.90;;;31.30;71.70;;;;;;5051800;28;20048;-62
2022/08/16 11:47:32;;;;;;;1999.90;999.90;;;31.80;73.20;;;;;;5053593;28;20048;-61
2022/08/16 11:49:59;;;;;;;1999.90;999.90;;;32.50;70.50;;;;;;5052864;28;20049;-61
2022/08/16 11:52:25;;;;;;;1999.90;999.90;;;32.40;67.70;;;;;;5053347;28;20043;-61
2022/08/16 11:54:51;;;;;;;1999.90;999.90;;;32.40;68.50;;;;;;5053889;28;20093;-61
2022/08/16 11:57:17;;;;;;;1999.90;999.90;;;32.80;75.90;;;;;;5054250;28;20430;-62
2022/08/16 11:59:42;;;;;;;1999.90;999.90;;;32.50;71.80;;;;;;5052926;28;20487;-62
2022/08/16 12:02:08;;;;;;;1999.90;999.90;;;31.70;69.40;;;;;;5052773;28;20045;-61
2022/08/16 12:04:35;;;;;;;1999.90;999.90;;;32.00;68.50;;;;;;5051221;28;20510;-61
2022/08/16 12:07:06;;;;;;;1999.90;999.90;;;32.10;65.40;;;;;;5053105;28;20045;-62